Time;durP1;ratioP1;P1;durP2;ratioP2;P2;SDS_P1;SDS_P2;PMS_P1;PMS_P2;Temp;Humidity;BMP_temperature;BMP_pressure;BME280_temperature;BME280_humidity;BME280_pressure;Samples;Min_cycle;Max_cycle;Signal;HPM_P1;HPM_P2
2021/07/15 00:00:57;;;;;;;;;;;;;;;-148.22;100.00;58358.63;5078830;28;1296;-78
2021/07/15 00:03:24;;;;;;;;;;;;;;;-148.22;100.00;58358.63;5077441;28;2029;-78
2021/07/15 00:05:50;;;;;;;;;;;;;;;-148.22;100.00;58358.63;5075608;28;1316;-78
2021/07/15 00:08:17;;;;;;;;;;;;;;;-148.22;100.00;58358.63;5073362;28;1273;-78
2021/07/15 00:10:47;;;;;;;;;;;;;;;-148.22;100.00;58358.63;5078611;28;996;-78
2021/07/15 00:13:20;;;;;;;;;;;;;;;-148.22;100.00;58358.63;5078434;28;774;-78
2021/07/15 00:15:57;;;;;;;;;;;;;;;-148.22;100.00;58358.63;5078639;28;806;-78
2021/07/15 00:18:44;;;;;;;;;;;;;;;-148.22;100.00;58358.63;5077166;28;1356;-78
2021/07/15 00:21:12;;;;;;;;;;;;;;;-148.22;100.00;58358.63;5077159;28;1263;-78
2021/07/15 00:23:53;;;;;;;;;;;;;;;-148.22;100.00;58358.63;5078302;28;1910;-78
2021/07/15 00:26:21;;;;;;;;;;;;;;;-148.22;100.00;58358.63;5078214;28;984;-78
2021/07/15 00:28:48;;;;;;;;;;;;;;;-148.22;100.00;58358.63;5076839;28;1279;-78
2021/07/15 00:31:15;;;;;;;;;;;;;;;-148.22;100.00;58358.63;5078278;28;866;-78
2021/07/15 00:33:40;;;;;;;;;;;;;;;-148.22;100.00;58358.63;5078178;28;774;-78
2021/07/15 00:36:05;;;;;;;;;;;;;;;-148.22;100.00;58358.63;5078142;28;1027;-78
2021/07/15 00:38:31;;;;;;;;;;;;;;;-148.22;100.00;58358.63;5076798;28;1172;-78
2021/07/15 00:41:08;;;;;;;;;;;;;;;-148.22;100.00;58358.63;5076204;28;1279;-78
2021/07/15 00:43:36;;;;;;;;;;;;;;;-148.22;100.00;58358.63;5075791;28;1957;-77
2021/07/15 00:46:03;;;;;;;;;;;;;;;-148.22;100.00;58358.63;5077933;28;782;-78
2021/07/15 00:48:30;;;;;;;;;;;;;;;-148.22;100.00;58358.63;5076613;28;1183;-78
2021/07/15 00:50:58;;;;;;;;;;;;;;;-148.22;100.00;58358.63;5076618;28;1178;-78
2021/07/15 00:53:34;;;;;;;;;;;;;;;-148.22;100.00;58358.63;5076656;28;1283;-77
2021/07/15 00:56:02;;;;;;;;;;;;;;;-148.22;100.00;58358.63;5076582;28;1294;-77
2021/07/15 00:58:36;;;;;;;;;;;;;;;-148.22;100.00;58358.63;5076131;28;1179;-78
2021/07/15 01:01:17;;;;;;;;;;;;;;;-148.22;100.00;58358.63;5076516;28;1301;-78
2021/07/15 01:03:54;;;;;;;;;;;;;;;-148.22;100.00;58358.63;5076381;28;1890;-78
2021/07/15 01:06:26;;;;;;;;;;;;;;;-148.22;100.00;58358.63;5073831;28;1336;-78
2021/07/15 01:08:51;;;;;;;;;;;;;;;-148.22;100.00;58358.63;5036267;28;1191;-78
2021/07/15 01:11:17;;;;;;;;;;;;;;;-148.22;100.00;58358.63;5037440;28;981;-78
2021/07/15 01:13:57;;;;;;;;;;;;;;;-148.22;100.00;58358.63;5037637;28;949;-78
2021/07/15 01:19:54;;;;;;;;;;;;;;;-148.22;100.00;58358.63;4976554;28;974;-78
2021/07/15 01:22:54;;;;;;;;;;;;;;;-148.22;100.00;58358.63;4976340;28;1189;-78
2021/07/15 01:25:39;;;;;;;;;;;;;;;-148.22;100.00;58358.63;4881927;29;1919;-78
2021/07/15 01:28:38;;;;;;;;;;;;;;;-148.22;100.00;58358.63;4890057;29;1231;-78
2021/07/15 01:31:14;;;;;;;;;;;;;;;-148.22;100.00;58358.63;4899949;29;1366;-78
2021/07/15 01:33:41;;;;;;;;;;;;;;;-148.22;100.00;58358.63;4899999;29;1316;-78
2021/07/15 01:36:09;;;;;;;;;;;;;;;-148.22;100.00;58358.63;4899927;29;1090;-78
2021/07/15 01:38:55;;;;;;;;;;;;;;;-148.22;100.00;58358.63;4899940;29;816;-77
2021/07/15 01:41:24;;;;;;;;;;;;;;;-148.22;100.00;58358.63;4899855;29;1275;-78
2021/07/15 01:44:09;;;;;;;;;;;;;;;-148.22;100.00;58358.63;4899635;29;1887;-78
2021/07/15 01:46:35;;;;;;;;;;;;;;;-148.22;100.00;58358.63;4899801;29;1152;-77
2021/07/15 01:49:13;;;;;;;;;;;;;;;-148.22;100.00;58358.63;4899580;29;1045;-78
2021/07/15 01:51:40;;;;;;;;;;;;;;;-148.22;100.00;58358.63;4892924;29;1283;-78
2021/07/15 01:54:18;;;;;;;;;;;;;;;-148.22;100.00;58358.63;4880840;29;1190;-78
2021/07/15 01:56:44;;;;;;;;;;;;;;;-148.22;100.00;58358.63;4926252;29;894;-78
2021/07/15 01:59:13;;;;;;;;;;;;;;;-148.22;100.00;58358.63;4972299;28;909;-79
2021/07/15 02:01:47;;;;;;;;;;;;;;;-148.22;100.00;58358.63;5034750;28;1470;-79
2021/07/15 02:04:13;;;;;;;;;;;;;;;-148.22;100.00;58358.63;5035124;28;1956;-79
2021/07/15 02:06:51;;;;;;;;;;;;;;;-148.22;100.00;58358.63;5037063;28;1250;-79
2021/07/15 02:09:18;;;;;;;;;;;;;;;-148.22;100.00;58358.63;5035697;28;1023;-79
2021/07/15 02:11:50;;;;;;;;;;;;;;;-148.22;100.00;58358.63;5035192;28;1323;-79
2021/07/15 02:14:16;;;;;;;;;;;;;;;-148.22;100.00;58358.63;5036294;28;961;-79
2021/07/15 02:16:48;;;;;;;;;;;;;;;-148.22;100.00;58358.63;5036324;28;969;-79
2021/07/15 02:19:14;;;;;;;;;;;;;;;-148.22;100.00;58358.63;5034990;28;1312;-79
2021/07/15 02:21:41;;;;;;;;;;;;;;;-148.22;100.00;58358.63;5035024;28;1280;-79
2021/07/15 02:24:09;;;;;;;;;;;;;;;-148.22;100.00;58358.63;5034881;28;1902;-79
2021/07/15 02:27:01;;;;;;;;;;;;;;;-148.22;100.00;58358.63;5034888;28;1248;-80
2021/07/15 02:29:36;;;;;;;;;;;;;;;-148.22;100.00;58358.63;4978329;28;1182;-78
2021/07/15 02:32:13;;;;;;;;;;;;;;;-148.22;100.00;58358.63;4994662;28;827;-79
2021/07/15 02:35:01;;;;;;;;;;;;;;;-148.22;100.00;58358.63;4994640;28;1032;-79
2021/07/15 02:40:38;;;;;;;;;;;;;;;-148.22;100.00;58358.63;4994601;28;1060;-79
2021/07/15 02:43:04;;;;;;;;;;;;;;;-148.22;100.00;58358.63;4978082;28;1320;-79
2021/07/15 02:45:30;;;;;;;;;;;;;;;-148.22;100.00;58358.63;4993432;28;1947;-79
2021/07/15 02:47:58;;;;;;;;;;;;;;;-148.22;100.00;58358.63;4994379;28;1033;-79
2021/07/15 02:50:25;;;;;;;;;;;;;;;-148.22;100.00;58358.63;4994481;28;978;-79
2021/07/15 02:52:59;;;;;;;;;;;;;;;-148.22;100.00;58358.63;4978243;28;1224;-79
2021/07/15 02:55:41;;;;;;;;;;;;;;;-148.22;100.00;58358.63;4994252;28;1343;-79
2021/07/15 02:58:12;;;;;;;;;;;;;;;-148.22;100.00;58358.63;4978050;28;1279;-79
2021/07/15 03:00:51;;;;;;;;;;;;;;;-148.22;100.00;58358.63;4994238;28;968;-79
2021/07/15 03:03:38;;;;;;;;;;;;;;;-148.22;100.00;58358.63;4994315;28;1009;-79
2021/07/15 03:06:07;;;;;;;;;;;;;;;-148.22;100.00;58358.63;4941356;28;1413;-79
2021/07/15 03:08:33;;;;;;;;;;;;;;;-148.22;100.00;58358.63;4985909;28;1359;-78
2021/07/15 03:10:59;;;;;;;;;;;;;;;-148.22;100.00;58358.63;5013653;28;1287;-79
2021/07/15 03:13:26;;;;;;;;;;;;;;;-148.22;100.00;58358.63;5013717;28;1240;-79
2021/07/15 03:15:52;;;;;;;;;;;;;;;-148.22;100.00;58358.63;5014077;28;831;-79
2021/07/15 03:18:20;;;;;;;;;;;;;;;-148.22;100.00;58358.63;5013769;28;1353;-79
2021/07/15 03:20:47;;;;;;;;;;;;;;;-148.22;100.00;58358.63;5015545;28;1049;-79
2021/07/15 03:23:15;;;;;;;;;;;;;;;-148.22;100.00;58358.63;5017788;28;1204;-79
2021/07/15 03:25:46;;;;;;;;;;;;;;;-148.22;100.00;58358.63;5017545;28;1902;-80
2021/07/15 03:28:14;;;;;;;;;;;;;;;-148.22;100.00;58358.63;5017725;28;1263;-79
2021/07/15 03:30:41;;;;;;;;;;;;;;;-148.22;100.00;58358.63;5017546;28;1185;-79
2021/07/15 03:33:20;;;;;;;;;;;;;;;-148.22;100.00;58358.63;5017436;28;1317;-79
2021/07/15 03:35:48;;;;;;;;;;;;;;;-148.22;100.00;58358.63;5017750;28;1072;-79
2021/07/15 03:38:14;;;;;;;;;;;;;;;-148.22;100.00;58358.63;5017588;28;1019;-79
2021/07/15 03:40:40;;;;;;;;;;;;;;;-148.22;100.00;58358.63;5017434;28;1294;-79
2021/07/15 03:43:08;;;;;;;;;;;;;;;-148.22;100.00;58358.63;5046676;28;1312;-79
2021/07/15 03:45:34;;;;;;;;;;;;;;;-148.22;100.00;58358.63;5079134;28;1898;-79
2021/07/15 03:48:03;;;;;;;;;;;;;;;-148.22;100.00;58358.63;5079269;28;1178;-79
2021/07/15 03:50:38;;;;;;;;;;;;;;;-148.22;100.00;58358.63;5077846;28;1274;-79
2021/07/15 03:53:05;;;;;;;;;;;;;;;-148.22;100.00;58358.63;5078808;28;1043;-80
2021/07/15 03:55:32;;;;;;;;;;;;;;;-148.22;100.00;58358.63;5077779;28;1148;-79
2021/07/15 03:58:03;;;;;;;;;;;;;;;-148.22;100.00;58358.63;5078867;28;874;-80
2021/07/15 04:00:37;;;;;;;;;;;;;;;-148.22;100.00;58358.63;5077452;28;1220;-79
2021/07/15 04:03:06;;;;;;;;;;;;;;;-148.22;100.00;58358.63;5077562;28;1238;-79
2021/07/15 04:05:34;;;;;;;;;;;;;;;-148.22;100.00;58358.63;5078570;28;1890;-79
2021/07/15 04:08:01;;;;;;;;;;;;;;;-148.22;100.00;58358.63;5066322;28;1274;-79
2021/07/15 04:10:27;;;;;;;;;;;;;;;-148.22;100.00;58358.63;5038715;28;932;-80
2021/07/15 04:13:04;;;;;;;;;;;;;;;-148.22;100.00;58358.63;5037482;28;1157;-79
2021/07/15 04:15:57;;;;;;;;;;;;;;;-148.22;100.00;58358.63;5038650;28;1028;-79
2021/07/15 04:18:33;;;;;;;;;;;;;;;-148.22;100.00;58358.63;5037321;28;1353;-79
2021/07/15 04:21:00;;;;;;;;;;;;;;;-148.22;100.00;58358.63;5036569;28;1396;-79
2021/07/15 04:23:31;;;;;;;;;;;;;;;-148.22;100.00;58358.63;5036608;28;1299;-80
2021/07/15 04:25:57;;;;;;;;;;;;;;;-148.22;100.00;58358.63;5037170;28;1231;-79
2021/07/15 04:28:24;;;;;;;;;;;;;;;-148.22;100.00;58358.63;5037193;28;1257;-79
2021/07/15 04:30:52;;;;;;;;;;;;;;;-148.22;100.00;58358.63;5037329;28;1260;-79
2021/07/15 04:33:18;;;;;;;;;;;;;;;-148.22;100.00;58358.63;5037552;28;961;-79
2021/07/15 04:35:43;;;;;;;;;;;;;;;-148.22;100.00;58358.63;5038450;28;972;-79
2021/07/15 04:38:24;;;;;;;;;;;;;;;-148.22;100.00;58358.63;5037000;28;1323;-79
2021/07/15 04:40:57;;;;;;;;;;;;;;;-148.22;100.00;58358.63;5036886;28;1287;-80
2021/07/15 04:43:33;;;;;;;;;;;;;;;-148.22;100.00;58358.63;5038225;28;806;-79
2021/07/15 04:46:07;;;;;;;;;;;;;;;-148.22;100.00;58358.63;5036412;28;925;-79
2021/07/15 04:48:44;;;;;;;;;;;;;;;-148.22;100.00;58358.63;5036083;28;1160;-78
2021/07/15 04:51:14;;;;;;;;;;;;;;;-148.22;100.00;58358.63;5036796;28;1344;-79
2021/07/15 04:53:41;;;;;;;;;;;;;;;-148.22;100.00;58358.63;5037883;28;964;-79
2021/07/15 04:56:19;;;;;;;;;;;;;;;-148.22;100.00;58358.63;5035863;28;1358;-79
2021/07/15 04:58:45;;;;;;;;;;;;;;;-148.22;100.00;58358.63;5035033;28;1132;-79
2021/07/15 05:01:11;;;;;;;;;;;;;;;-148.22;100.00;58358.63;5036598;28;1336;-79
2021/07/15 05:03:57;;;;;;;;;;;;;;;-148.22;100.00;58358.63;5036396;28;1894;-79
2021/07/15 05:06:33;;;;;;;;;;;;;;;-148.22;100.00;58358.63;5036364;28;1224;-78
2021/07/15 05:09:04;;;;;;;;;;;;;;;-148.22;100.00;58358.63;5044416;28;1081;-79
2021/07/15 05:11:31;;;;;;;;;;;;;;;-148.22;100.00;58358.63;5076426;28;1191;-79
2021/07/15 05:13:57;;;;;;;;;;;;;;;-148.22;100.00;58358.63;5077520;28;1015;-79
2021/07/15 05:16:24;;;;;;;;;;;;;;;-148.22;100.00;58358.63;5077438;28;885;-79
2021/07/15 05:18:58;;;;;;;;;;;;;;;-148.22;100.00;58358.63;5076185;28;1392;-79
2021/07/15 05:21:23;;;;;;;;;;;;;;;-148.22;100.00;58358.63;5076093;28;1309;-79
2021/07/15 05:23:56;;;;;;;;;;;;;;;-148.22;100.00;58358.63;5075962;28;1918;-79
2021/07/15 05:26:21;;;;;;;;;;;;;;;-148.22;100.00;58358.63;5076018;28;1276;-79
2021/07/15 05:28:49;;;;;;;;;;;;;;;-148.22;100.00;58358.63;5077227;28;1020;-79
2021/07/15 05:31:16;;;;;;;;;;;;;;;-148.22;100.00;58358.63;5075881;28;1291;-78
2021/07/15 05:34:00;;;;;;;;;;;;;;;-148.22;100.00;58358.63;5075843;28;1171;-78
2021/07/15 05:36:31;;;;;;;;;;;;;;;-148.22;100.00;58358.63;5075850;28;1252;-78
2021/07/15 05:39:05;;;;;;;;;;;;;;;-148.22;100.00;58358.63;5076944;28;766;-78
2021/07/15 05:41:35;;;;;;;;;;;;;;;-148.22;100.00;58358.63;5075725;28;1371;-80
2021/07/15 05:44:01;;;;;;;;;;;;;;;-148.22;100.00;58358.63;5075906;28;1886;-79
2021/07/15 05:46:28;;;;;;;;;;;;;;;-148.22;100.00;58358.63;5075507;28;1326;-79
2021/07/15 05:48:55;;;;;;;;;;;;;;;-148.22;100.00;58358.63;5076876;28;918;-79
2021/07/15 05:51:35;;;;;;;;;;;;;;;-148.22;100.00;58358.63;5075593;28;1236;-79
2021/07/15 05:54:34;;;;;;;;;;;;;;;-148.22;100.00;58358.63;5076788;28;1032;-79
2021/07/15 05:57:00;;;;;;;;;;;;;;;-148.22;100.00;58358.63;4995374;28;1119;-79
2021/07/15 05:59:26;;;;;;;;;;;;;;;-148.22;100.00;58358.63;4995137;28;1263;-79
2021/07/15 06:01:53;;;;;;;;;;;;;;;-148.22;100.00;58358.63;4995257;28;1348;-78
2021/07/15 06:04:34;;;;;;;;;;;;;;;-148.22;100.00;58358.63;4995017;28;1875;-79
2021/07/15 06:07:00;;;;;;;;;;;;;;;-148.22;100.00;58358.63;4995219;28;1074;-79
2021/07/15 06:09:25;;;;;;;;;;;;;;;-148.22;100.00;58358.63;4992653;28;1023;-78
2021/07/15 06:11:50;;;;;;;;;;;;;;;-148.22;100.00;58358.63;4995127;28;957;-79
2021/07/15 06:14:17;;;;;;;;;;;;;;;-148.22;100.00;58358.63;4994884;28;993;-78
2021/07/15 06:16:43;;;;;;;;;;;;;;;-148.22;100.00;58358.63;4994836;28;1216;-79
2021/07/15 06:19:08;;;;;;;;;;;;;;;-148.22;100.00;58358.63;4994893;28;1286;-79
2021/07/15 06:21:34;;;;;;;;;;;;;;;-148.22;100.00;58358.63;4994900;28;910;-78
2021/07/15 06:24:01;;;;;;;;;;;;;;;-148.22;100.00;58358.63;4994972;28;1903;-78
2021/07/15 06:26:28;;;;;;;;;;;;;;;-148.22;100.00;58358.63;4994793;28;1122;-78
2021/07/15 06:29:06;;;;;;;;;;;;;;;-148.22;100.00;58358.63;4994683;28;1184;-79
2021/07/15 06:31:46;;;;;;;;;;;;;;;-148.22;100.00;58358.63;4990110;28;1405;-79
2021/07/15 06:34:11;;;;;;;;;;;;;;;-148.22;100.00;58358.63;5054775;28;1325;-80
2021/07/15 06:36:40;;;;;;;;;;;;;;;-148.22;100.00;58358.63;5054734;28;1340;-80
2021/07/15 06:39:05;;;;;;;;;;;;;;;-148.22;100.00;58358.63;5073710;28;1032;-80
2021/07/15 06:41:31;;;;;;;;;;;;;;;-148.22;100.00;58358.63;5074373;28;1194;-80
2021/07/15 06:43:56;;;;;;;;;;;;;;;-148.22;100.00;58358.63;5074762;28;1882;-80
2021/07/15 06:46:25;;;;;;;;;;;;;;;-148.22;100.00;58358.63;5074869;28;1183;-80
2021/07/15 06:48:56;;;;;;;;;;;;;;;-148.22;100.00;58358.63;5074761;28;1204;-80
2021/07/15 06:51:21;;;;;;;;;;;;;;;-148.22;100.00;58358.63;5074544;28;1148;-80
2021/07/15 06:53:48;;;;;;;;;;;;;;;-148.22;100.00;58358.63;5074570;28;1390;-80
2021/07/15 06:56:13;;;;;;;;;;;;;;;-148.22;100.00;58358.63;5075515;28;809;-80
2021/07/15 06:58:40;;;;;;;;;;;;;;;-148.22;100.00;58358.63;5074458;28;1175;-80
2021/07/15 07:01:08;;;;;;;;;;;;;;;-148.22;100.00;58358.63;5074474;28;1325;-82
2021/07/15 07:03:42;;;;;;;;;;;;;;;-148.22;100.00;58358.63;5074502;28;1288;-80
2021/07/15 07:06:08;;;;;;;;;;;;;;;-148.22;100.00;58358.63;5075867;28;1103;-80
2021/07/15 07:08:40;;;;;;;;;;;;;;;-148.22;100.00;58358.63;5074307;28;1420;-80
2021/07/15 07:11:05;;;;;;;;;;;;;;;-148.22;100.00;58358.63;5070060;28;1280;-80
2021/07/15 07:13:31;;;;;;;;;;;;;;;-148.22;100.00;58358.63;5075450;28;829;-79
2021/07/15 07:15:57;;;;;;;;;;;;;;;-148.22;100.00;58358.63;5066491;28;1511;-78
2021/07/15 07:18:23;;;;;;;;;;;;;;;-148.22;100.00;58358.63;5054293;28;1298;-79
2021/07/15 07:20:48;;;;;;;;;;;;;;;-148.22;100.00;58358.63;5057966;28;1475;-78
2021/07/15 07:23:15;;;;;;;;;;;;;;;-148.22;100.00;58358.63;5075546;28;814;-80
2021/07/15 07:25:40;;;;;;;;;;;;;;;-148.22;100.00;58358.63;5074902;28;1914;-81
2021/07/15 07:28:06;;;;;;;;;;;;;;;-148.22;100.00;58358.63;5074501;28;1325;-80
2021/07/15 07:30:32;;;;;;;;;;;;;;;-148.22;100.00;58358.63;5074349;28;1259;-81
2021/07/15 07:32:57;;;;;;;;;;;;;;;-148.22;100.00;58358.63;5074204;28;1282;-81
2021/07/15 07:35:25;;;;;;;;;;;;;;;-148.22;100.00;58358.63;5070215;28;1602;-81
2021/07/15 07:37:51;;;;;;;;;;;;;;;-148.22;100.00;58358.63;5073545;28;1136;-81
2021/07/15 07:40:17;;;;;;;;;;;;;;;-148.22;100.00;58358.63;5075415;28;759;-81
2021/07/15 07:42:43;;;;;;;;;;;;;;;-148.22;100.00;58358.63;5074243;28;1195;-80
2021/07/15 07:45:10;;;;;;;;;;;;;;;-148.22;100.00;58358.63;5075154;28;1890;-79
2021/07/15 07:47:39;;;;;;;;;;;;;;;-148.22;100.00;58358.63;5075027;28;1384;-79
2021/07/15 07:50:07;;;;;;;;;;;;;;;-148.22;100.00;58358.63;5069465;28;1546;-79
2021/07/15 07:52:32;;;;;;;;;;;;;;;-148.22;100.00;58358.63;5068976;28;1567;-79
2021/07/15 07:54:59;;;;;;;;;;;;;;;-148.22;100.00;58358.63;5055182;28;763;-78
2021/07/15 07:57:24;;;;;;;;;;;;;;;-148.22;100.00;58358.63;5054975;28;834;-79
2021/07/15 07:59:50;;;;;;;;;;;;;;;-148.22;100.00;58358.63;5073471;28;1602;-78
2021/07/15 08:02:16;;;;;;;;;;;;;;;-148.22;100.00;58358.63;5070281;28;1407;-79
2021/07/15 08:04:47;;;;;;;;;;;;;;;-148.22;100.00;58358.63;5053639;28;1894;-79
2021/07/15 08:07:15;;;;;;;;;;;;;;;-148.22;100.00;58358.63;5072554;28;1573;-79
2021/07/15 08:09:45;;;;;;;;;;;;;;;-148.22;100.00;58358.63;5075345;28;917;-79
2021/07/15 08:12:17;;;;;;;;;;;;;;;-148.22;100.00;58358.63;5077551;28;1376;-77
2021/07/15 08:14:46;;;;;;;;;;;;;;;-148.22;100.00;58358.63;5077294;28;1255;-78
2021/07/15 08:17:13;;;;;;;;;;;;;;;-148.22;100.00;58358.63;5077333;28;1183;-78
2021/07/15 08:19:40;;;;;;;;;;;;;;;-148.22;100.00;58358.63;5073947;28;1204;-78
2021/07/15 08:22:06;;;;;;;;;;;;;;;-148.22;100.00;58358.63;5058578;28;799;-78
2021/07/15 08:24:31;;;;;;;;;;;;;;;-148.22;100.00;58358.63;5056972;28;1965;-78
2021/07/15 08:26:58;;;;;;;;;;;;;;;-148.22;100.00;58358.63;5057339;28;1683;-78
2021/07/15 08:29:55;;;;;;;;;;;;;;;-148.22;100.00;58358.63;5057856;28;1609;-87
2021/07/15 08:32:21;;;;;;;;;;;;;;;-148.22;100.00;58358.63;5057494;28;1221;-83
2021/07/15 08:34:46;;;;;;;;;;;;;;;-148.22;100.00;58358.63;5057261;28;1511;-83
2021/07/15 08:37:17;;;;;;;;;;;;;;;-148.22;100.00;58358.63;5065883;28;1446;-85
2021/07/15 08:39:45;;;;;;;;;;;;;;;-148.22;100.00;58358.63;5071107;28;1406;-84
2021/07/15 08:42:19;;;;;;;;;;;;;;;-148.22;100.00;58358.63;5057262;28;1207;-84
2021/07/15 08:45:00;;;;;;;;;;;;;;;-148.22;100.00;58358.63;5069425;28;1953;-85
2021/07/15 08:47:25;;;;;;;;;;;;;;;-148.22;100.00;58358.63;5073462;28;1250;-84
2021/07/15 08:49:56;;;;;;;;;;;;;;;-148.22;100.00;58358.63;5076897;28;1307;-84
2021/07/15 08:52:22;;;;;;;;;;;;;;;-148.22;100.00;58358.63;5069879;28;1337;-83
2021/07/15 08:57:15;;;;;;;;;;;;;;;-148.22;100.00;58358.63;5071092;28;1416;-81
2021/07/15 08:59:42;;;;;;;;;;;;;;;-148.22;100.00;58358.63;5063856;28;1282;-81
2021/07/15 09:02:11;;;;;;;;;;;;;;;-148.22;100.00;58358.63;5056965;28;1160;-81
2021/07/15 09:04:36;;;;;;;;;;;;;;;-148.22;100.00;58358.63;5056775;28;1870;-81
2021/07/15 09:07:02;;;;;;;;;;;;;;;-148.22;100.00;58358.63;5074847;28;1416;-81
2021/07/15 09:09:28;;;;;;;;;;;;;;;-148.22;100.00;58358.63;5076511;28;1183;-82
2021/07/15 09:11:53;;;;;;;;;;;;;;;-148.22;100.00;58358.63;5060633;28;1236;-82
2021/07/15 09:14:21;;;;;;;;;;;;;;;-148.22;100.00;58358.63;5065754;28;1241;-81
2021/07/15 09:16:53;;;;;;;;;;;;;;;-148.22;100.00;58358.63;5075004;28;1211;-82
2021/07/15 09:19:20;;;;;;;;;;;;;;;-148.22;100.00;58358.63;5076022;28;1297;-82
2021/07/15 09:22:06;;;;;;;;;;;;;;;-148.22;100.00;58358.63;5077639;28;1386;-81
2021/07/15 09:24:34;;;;;;;;;;;;;;;-148.22;100.00;58358.63;5077345;28;1961;-82
2021/07/15 09:27:21;;;;;;;;;;;;;;;-148.22;100.00;58358.63;5077200;28;858;-83
2021/07/15 09:30:07;;;;;;;;;;;;;;;-148.22;100.00;58358.63;5077252;28;981;-82
2021/07/15 09:33:11;;;;;;;;;;;;;;;-148.22;100.00;58358.63;5015421;28;1192;-82
2021/07/15 09:35:46;;;;;;;;;;;;;;;-148.22;100.00;58358.63;4941184;29;1193;-82
2021/07/15 09:38:20;;;;;;;;;;;;;;;-148.22;100.00;58358.63;4941210;29;1242;-82
2021/07/15 09:40:53;;;;;;;;;;;;;;;-148.22;100.00;58358.63;4957296;29;1105;-81
2021/07/15 09:43:20;;;;;;;;;;;;;;;-148.22;100.00;58358.63;4935134;29;1557;-81
2021/07/15 09:45:46;;;;;;;;;;;;;;;-148.22;100.00;58358.63;4953546;29;1941;-82
2021/07/15 09:48:13;;;;;;;;;;;;;;;-148.22;100.00;58358.63;4940830;29;1370;-82
2021/07/15 09:50:48;;;;;;;;;;;;;;;-148.22;100.00;58358.63;4940738;29;1548;-82
2021/07/15 09:53:20;;;;;;;;;;;;;;;-148.22;100.00;58358.63;4956835;29;1220;-82
2021/07/15 09:55:47;;;;;;;;;;;;;;;-148.22;100.00;58358.63;4956041;29;1420;-80
2021/07/15 09:58:14;;;;;;;;;;;;;;;-148.22;100.00;58358.63;4956749;29;788;-80
2021/07/15 10:00:42;;;;;;;;;;;;;;;-148.22;100.00;58358.63;4956530;28;1307;-80
2021/07/15 10:03:17;;;;;;;;;;;;;;;-148.22;100.00;58358.63;4956449;29;1337;-81
2021/07/15 10:06:04;;;;;;;;;;;;;;;-148.22;100.00;58358.63;4967434;28;1915;-80
2021/07/15 10:08:57;;;;;;;;;;;;;;;-148.22;100.00;58358.63;4999798;28;1364;-79
2021/07/15 10:11:23;;;;;;;;;;;;;;;-148.22;100.00;58358.63;5054869;28;1311;-79
2021/07/15 10:14:19;;;;;;;;;;;;;;;-148.22;100.00;58358.63;5067659;28;1416;-79
2021/07/15 10:16:46;;;;;;;;;;;;;;;-148.22;100.00;58358.63;5011008;28;1498;-79
2021/07/15 10:19:18;;;;;;;;;;;;;;;-148.22;100.00;58358.63;4978833;28;1405;-79
2021/07/15 10:21:44;;;;;;;;;;;;;;;-148.22;100.00;58358.63;4994823;28;1109;-79
2021/07/15 10:24:25;;;;;;;;;;;;;;;-148.22;100.00;58358.63;4994723;28;1910;-79
2021/07/15 10:26:52;;;;;;;;;;;;;;;-148.22;100.00;58358.63;4978566;28;1244;-80
2021/07/15 10:29:18;;;;;;;;;;;;;;;-148.22;100.00;58358.63;4978320;28;1193;-79
2021/07/15 10:31:47;;;;;;;;;;;;;;;-148.22;100.00;58358.63;4978017;28;1361;-80
2021/07/15 10:34:29;;;;;;;;;;;;;;;-148.22;100.00;58358.63;4994715;28;943;-79
2021/07/15 10:36:57;;;;;;;;;;;;;;;-148.22;100.00;58358.63;5006248;28;1475;-80
2021/07/15 10:39:28;;;;;;;;;;;;;;;-148.22;100.00;58358.63;4978329;28;1186;-80
2021/07/15 10:41:56;;;;;;;;;;;;;;;-148.22;100.00;58358.63;4978231;28;1382;-79
2021/07/15 10:44:31;;;;;;;;;;;;;;;-148.22;100.00;58358.63;4978169;28;1952;-80
2021/07/15 10:46:58;;;;;;;;;;;;;;;-148.22;100.00;58358.63;4992168;28;1503;-79
2021/07/15 10:49:24;;;;;;;;;;;;;;;-148.22;100.00;58358.63;5014062;28;1161;-79
2021/07/15 10:52:01;;;;;;;;;;;;;;;-148.22;100.00;58358.63;5014067;28;1185;-79
2021/07/15 10:54:34;;;;;;;;;;;;;;;-148.22;100.00;58358.63;5054488;28;1213;-80
2021/07/15 10:57:10;;;;;;;;;;;;;;;-148.22;100.00;58358.63;5055699;28;1059;-79
2021/07/15 10:59:45;;;;;;;;;;;;;;;-148.22;100.00;58358.63;5064860;28;981;-79
2021/07/15 11:02:28;;;;;;;;;;;;;;;-148.22;100.00;58358.63;5071450;28;1504;-80
2021/07/15 11:05:01;;;;;;;;;;;;;;;-148.22;100.00;58358.63;5057923;28;1898;-79
2021/07/15 11:07:30;;;;;;;;;;;;;;;-148.22;100.00;58358.63;5059564;28;1419;-78
2021/07/15 11:10:14;;;;;;;;;;;;;;;-148.22;100.00;58358.63;5065533;28;1320;-82
2021/07/15 11:12:39;;;;;;;;;;;;;;;-148.22;100.00;58358.63;5066680;28;1424;-83
2021/07/15 11:15:16;;;;;;;;;;;;;;;-148.22;100.00;58358.63;5070400;28;1363;-83
2021/07/15 11:17:54;;;;;;;;;;;;;;;-148.22;100.00;58358.63;5064646;28;1340;-82
2021/07/15 11:20:51;;;;;;;;;;;;;;;-148.22;100.00;58358.63;5054367;28;1311;-82
2021/07/15 11:23:30;;;;;;;;;;;;;;;-148.22;100.00;58358.63;5065272;28;1487;-80
2021/07/15 11:25:56;;;;;;;;;;;;;;;-148.22;100.00;58358.63;5074183;28;1969;-81
2021/07/15 11:28:29;;;;;;;;;;;;;;;-148.22;100.00;58358.63;5075361;28;858;-81
2021/07/15 11:31:00;;;;;;;;;;;;;;;-148.22;100.00;58358.63;5074103;28;1258;-79
2021/07/15 11:33:30;;;;;;;;;;;;;;;-148.22;100.00;58358.63;5074009;28;1036;-80
2021/07/15 11:36:01;;;;;;;;;;;;;;;-148.22;100.00;58358.63;5073935;28;1429;-81
2021/07/15 11:38:56;;;;;;;;;;;;;;;-148.22;100.00;58358.63;5075350;28;826;-80
2021/07/15 11:41:23;;;;;;;;;;;;;;;-148.22;100.00;58358.63;5017788;28;1224;-80
2021/07/15 11:43:57;;;;;;;;;;;;;;;-148.22;100.00;58358.63;5037123;28;1944;-80
2021/07/15 11:46:33;;;;;;;;;;;;;;;-148.22;100.00;58358.63;5037258;28;1552;-80
2021/07/15 11:49:03;;;;;;;;;;;;;;;-148.22;100.00;58358.63;5037059;28;913;-80
2021/07/15 11:51:46;;;;;;;;;;;;;;;-148.22;100.00;58358.63;5037129;28;1131;-80
2021/07/15 11:57:13;;;;;;;;;;;;;;;-148.22;100.00;58358.63;5036827;28;1461;-80
2021/07/15 11:59:49;;;;;;;;;;;;;;;-148.22;100.00;58358.63;5020351;28;1283;-78
2021/07/15 12:02:26;;;;;;;;;;;;;;;-148.22;100.00;58358.63;5016916;28;1383;-84
2021/07/15 12:05:10;;;;;;;;;;;;;;;-148.22;100.00;58358.63;5033254;28;1948;-82
2021/07/15 12:08:08;;;;;;;;;;;;;;;-148.22;100.00;58358.63;5016741;28;1598;-84
2021/07/15 12:10:38;;;;;;;;;;;;;;;-148.22;100.00;58358.63;4976651;28;1441;-81
2021/07/15 12:13:07;;;;;;;;;;;;;;;-148.22;100.00;58358.63;4961635;28;1339;-80
2021/07/15 12:15:34;;;;;;;;;;;;;;;-148.22;100.00;58358.63;4995857;28;1239;-80
2021/07/15 12:18:11;;;;;;;;;;;;;;;-148.22;100.00;58358.63;5004668;28;1321;-80
2021/07/15 12:20:42;;;;;;;;;;;;;;;-148.22;100.00;58358.63;5018268;28;1463;-80
2021/07/15 12:23:13;;;;;;;;;;;;;;;-148.22;100.00;58358.63;5016655;28;763;-80
2021/07/15 12:25:39;;;;;;;;;;;;;;;-148.22;100.00;58358.63;5016606;28;1887;-80
2021/07/15 12:28:08;;;;;;;;;;;;;;;-148.22;100.00;58358.63;5016799;28;784;-80
2021/07/15 12:30:41;;;;;;;;;;;;;;;-148.22;100.00;58358.63;5005018;28;1434;-80
2021/07/15 12:33:07;;;;;;;;;;;;;;;-148.22;100.00;58358.63;4999829;28;1414;-82
2021/07/15 12:35:36;;;;;;;;;;;;;;;-148.22;100.00;58358.63;4979708;28;1680;-82
2021/07/15 12:38:36;;;;;;;;;;;;;;;-148.22;100.00;58358.63;4980513;28;1205;-82
2021/07/15 12:41:05;;;;;;;;;;;;;;;-148.22;100.00;58358.63;4976946;28;1444;-82
2021/07/15 12:43:53;;;;;;;;;;;;;;;-148.22;100.00;58358.63;4977154;28;1306;-82
2021/07/15 12:46:36;;;;;;;;;;;;;;;-148.22;100.00;58358.63;5002616;28;1311;-85
2021/07/15 12:49:04;;;;;;;;;;;;;;;-148.22;100.00;58358.63;5017497;28;821;-83
2021/07/15 12:51:43;;;;;;;;;;;;;;;-148.22;100.00;58358.63;5016387;28;1303;-83
2021/07/15 12:54:17;;;;;;;;;;;;;;;-148.22;100.00;58358.63;5015559;28;1439;-84
2021/07/15 12:56:58;;;;;;;;;;;;;;;-148.22;100.00;58358.63;5016306;28;1117;-83
2021/07/15 12:59:25;;;;;;;;;;;;;;;-148.22;100.00;58358.63;5031852;28;1530;-82
2021/07/15 13:01:52;;;;;;;;;;;;;;;-148.22;100.00;58358.63;5016142;28;1514;-83